createdAt,value
2023-05-04T00:00:35.815Z,23.98
2023-05-04T00:03:02.401Z,23.98
2023-05-04T00:05:29.032Z,23.97
2023-05-04T00:07:55.576Z,23.97
2023-05-04T00:10:22.122Z,23.97
2023-05-04T00:12:48.683Z,23.97
2023-05-04T00:15:15.281Z,23.96
2023-05-04T00:17:41.871Z,23.95
2023-05-04T00:20:08.459Z,23.96
2023-05-04T00:22:34.982Z,23.95
2023-05-04T00:25:01.540Z,23.95
2023-05-04T00:27:28.071Z,23.95
2023-05-04T00:29:54.618Z,23.94
2023-05-04T00:32:21.180Z,23.93
2023-05-04T00:34:47.723Z,23.93
2023-05-04T00:37:14.269Z,23.92
2023-05-04T00:39:40.830Z,23.93
2023-05-04T00:42:07.376Z,23.92
2023-05-04T00:44:33.912Z,23.93
2023-05-04T00:47:00.556Z,23.93
2023-05-04T00:49:27.169Z,23.93
2023-05-04T00:51:53.708Z,23.92
2023-05-04T00:54:20.260Z,23.90
2023-05-04T00:56:46.803Z,23.91
2023-05-04T00:59:13.364Z,23.91
2023-05-04T05:06:33.415Z,23.51
2023-05-04T05:08:59.954Z,23.50
2023-05-04T05:11:26.500Z,23.48
2023-05-04T05:13:53.038Z,23.46
2023-05-04T05:16:19.603Z,23.45
2023-05-04T05:18:46.174Z,23.47
2023-05-04T05:21:12.707Z,23.48
2023-05-04T05:23:39.253Z,23.49
2023-05-04T05:26:05.811Z,23.50
2023-05-04T05:28:32.371Z,23.49
2023-05-04T05:30:59.085Z,23.48
2023-05-04T05:33:25.673Z,23.47
2023-05-04T05:35:52.208Z,23.48
2023-05-04T05:38:18.767Z,23.47
2023-05-04T05:40:45.314Z,23.48
2023-05-04T05:43:11.849Z,23.49
2023-05-04T05:45:38.411Z,23.51
2023-05-04T05:48:05.014Z,23.49
2023-05-04T05:50:31.602Z,23.51
2023-05-04T05:52:58.144Z,23.52
2023-05-04T05:55:24.694Z,23.53
2023-05-04T05:57:51.311Z,23.51
2023-05-04T06:00:17.865Z,23.46
2023-05-04T06:02:44.459Z,23.40
2023-05-04T06:05:11.043Z,23.35
2023-05-04T06:07:37.615Z,23.37
2023-05-04T06:10:04.244Z,23.40
2023-05-04T06:12:30.973Z,23.40
2023-05-04T06:14:57.584Z,23.40
2023-05-04T06:17:24.108Z,23.42
2023-05-04T06:19:51.003Z,23.44
2023-05-04T06:22:17.595Z,23.42
2023-05-04T06:24:44.139Z,23.44
2023-05-04T06:27:10.681Z,23.44
2023-05-04T06:29:37.267Z,23.45
2023-05-04T06:32:03.887Z,23.44
2023-05-04T06:34:30.467Z,23.46
2023-05-04T06:36:57.000Z,23.46
2023-05-04T06:39:23.529Z,23.46
2023-05-04T06:41:50.071Z,23.44
2023-05-04T06:44:16.720Z,23.45
2023-05-04T06:46:43.271Z,23.46
2023-05-04T06:49:09.795Z,23.47
2023-05-04T06:51:36.338Z,23.49
2023-05-04T06:54:02.879Z,23.49
2023-05-04T06:56:29.410Z,23.51
2023-05-04T06:58:55.960Z,23.51
2023-05-04T07:01:22.531Z,23.51
2023-05-04T07:03:49.226Z,23.50
2023-05-04T07:06:15.798Z,23.49
2023-05-04T07:08:42.378Z,23.48
2023-05-04T07:11:08.908Z,23.50
2023-05-04T07:13:35.460Z,23.50
2023-05-04T07:16:02.006Z,23.48
2023-05-04T07:18:28.525Z,23.47
2023-05-04T07:21:01.515Z,23.48
2023-05-04T07:23:32.869Z,23.50
2023-05-04T07:25:59.424Z,23.47
2023-05-04T07:28:25.997Z,23.44
2023-05-04T07:30:52.571Z,23.44
2023-05-04T07:33:19.134Z,23.44
2023-05-04T07:35:45.726Z,23.41
2023-05-04T07:38:12.266Z,23.41
2023-05-04T07:40:38.809Z,23.41
2023-05-04T07:43:05.342Z,23.46
2023-05-04T07:45:31.871Z,23.47
2023-05-04T07:47:58.496Z,23.46
2023-05-04T07:50:25.052Z,23.46
2023-05-04T07:52:51.624Z,23.47
2023-05-04T07:55:18.203Z,23.47
2023-05-04T07:57:44.739Z,23.47
2023-05-04T08:00:11.281Z,23.50
2023-05-04T08:02:37.916Z,23.51
2023-05-04T08:05:04.609Z,23.53
2023-05-04T08:07:31.220Z,23.57
2023-05-04T08:09:57.763Z,23.58
2023-05-04T08:12:24.312Z,23.57
2023-05-04T08:14:50.836Z,23.56
2023-05-04T08:17:17.383Z,23.54
2023-05-04T08:19:44.057Z,23.54
2023-05-04T08:22:10.630Z,23.53
2023-05-04T08:24:37.184Z,23.54
2023-05-04T08:27:07.850Z,23.53
2023-05-04T08:29:35.513Z,23.52
2023-05-04T08:32:02.103Z,23.53
2023-05-04T08:34:28.656Z,23.51
2023-05-04T08:36:55.256Z,23.51
2023-05-04T08:39:21.888Z,23.50
2023-05-04T08:41:48.444Z,23.52
2023-05-04T08:44:14.989Z,23.54
2023-05-04T08:46:41.527Z,23.54
2023-05-04T08:49:08.108Z,23.55
2023-05-04T08:51:34.715Z,23.55
2023-05-04T08:54:01.256Z,23.55
2023-05-04T08:56:27.803Z,23.55
2023-05-04T08:58:54.354Z,23.55
2023-05-04T09:01:21.037Z,23.55
2023-05-04T09:03:47.730Z,23.53
2023-05-04T09:06:14.418Z,23.54
2023-05-04T09:08:40.958Z,23.56
2023-05-04T09:11:07.481Z,23.58
2023-05-04T09:13:34.042Z,23.60
2023-05-04T09:16:00.618Z,23.60
2023-05-04T09:18:27.225Z,23.61
2023-05-04T09:20:53.825Z,23.62
2023-05-04T09:23:20.383Z,23.62
2023-05-04T09:25:46.960Z,23.63
2023-05-04T09:28:13.526Z,23.62
2023-05-04T09:30:40.070Z,23.60
2023-05-04T09:33:06.627Z,23.61
2023-05-04T09:35:34.325Z,23.63
2023-05-04T09:38:01.222Z,23.60
2023-05-04T09:40:27.757Z,23.61
2023-05-04T09:42:54.301Z,23.61
2023-05-04T09:45:20.853Z,23.61
2023-05-04T09:47:47.487Z,23.61
2023-05-04T09:50:14.090Z,23.61
2023-05-04T09:52:40.670Z,23.60
2023-05-04T09:55:07.260Z,23.61
2023-05-04T09:57:33.802Z,23.62
2023-05-04T10:00:00.345Z,23.40
2023-05-04T10:02:26.987Z,23.23
2023-05-04T10:04:53.557Z,23.33
2023-05-04T10:07:20.116Z,23.42
2023-05-04T10:09:46.650Z,23.49
2023-05-04T10:12:13.228Z,23.54
2023-05-04T10:14:39.791Z,23.54
2023-05-04T10:17:06.329Z,23.59
2023-05-04T10:19:32.875Z,23.62
2023-05-04T10:21:59.412Z,23.65
2023-05-04T10:24:25.942Z,23.66
2023-05-04T10:26:52.474Z,23.68
2023-05-04T10:31:45.558Z,23.69
2023-05-04T10:34:12.176Z,23.67
2023-05-04T10:36:38.799Z,23.67
2023-05-04T10:39:05.397Z,23.66
2023-05-04T10:41:31.915Z,23.67
2023-05-04T10:43:58.457Z,23.67
2023-05-04T10:46:25.015Z,23.69
2023-05-04T10:48:51.608Z,23.69
2023-05-04T10:51:18.222Z,23.68
2023-05-04T10:53:44.761Z,23.68
2023-05-04T10:56:11.285Z,23.69
2023-05-04T10:58:37.872Z,23.69
2023-05-04T11:01:04.430Z,23.69
2023-05-04T11:03:31.308Z,23.71
2023-05-04T11:05:57.977Z,23.70
2023-05-04T11:08:24.542Z,23.70
2023-05-04T11:10:51.090Z,23.69
2023-05-04T11:13:17.660Z,23.69
2023-05-04T11:15:44.209Z,23.70
2023-05-04T11:18:10.843Z,23.72
2023-05-04T11:20:37.420Z,23.70
2023-05-04T11:23:03.949Z,23.70
2023-05-04T11:25:30.496Z,23.71
2023-05-04T11:27:57.035Z,23.73
2023-05-04T11:30:23.601Z,23.78
2023-05-04T11:32:50.241Z,23.83
2023-05-04T11:35:16.838Z,23.86
2023-05-04T11:37:43.398Z,23.89
2023-05-04T11:40:09.924Z,23.89
2023-05-04T11:42:36.467Z,23.90
2023-05-04T11:45:03.235Z,23.88
2023-05-04T11:47:30.133Z,23.87
2023-05-04T11:49:56.706Z,23.87
2023-05-04T11:52:23.268Z,23.84
2023-05-04T11:54:49.828Z,23.85
2023-05-04T11:57:16.376Z,23.86
2023-05-04T11:59:42.909Z,23.84
2023-05-04T12:02:09.470Z,23.84
2023-05-04T12:04:36.004Z,23.83
2023-05-04T12:07:02.596Z,23.84
2023-05-04T12:09:29.132Z,23.85
2023-05-04T12:11:55.665Z,23.84
2023-05-04T12:14:22.216Z,23.84
2023-05-04T12:16:48.875Z,23.84
2023-05-04T12:19:15.460Z,23.86
2023-05-04T12:21:42.016Z,23.87
2023-05-04T12:24:08.563Z,23.88
2023-05-04T12:26:35.320Z,23.89
2023-05-04T12:29:01.890Z,23.89
2023-05-04T12:31:28.445Z,23.89
2023-05-04T12:33:55.006Z,23.89
2023-05-04T12:36:21.549Z,23.91
2023-05-04T12:38:48.071Z,23.97
2023-05-04T12:41:14.624Z,24.00
2023-05-04T12:43:41.191Z,24.04
2023-05-04T12:46:07.833Z,24.06
2023-05-04T12:48:34.449Z,24.10
2023-05-04T12:51:01.021Z,24.09
2023-05-04T12:53:27.626Z,24.10
2023-05-04T12:55:54.203Z,24.09
2023-05-04T12:58:20.766Z,24.05
2023-05-04T13:00:47.370Z,24.05
2023-05-04T13:03:14.010Z,24.03
2023-05-04T13:05:40.623Z,24.05
2023-05-04T13:08:07.216Z,24.07
2023-05-04T13:10:33.768Z,24.08
2023-05-04T13:13:00.358Z,24.08
2023-05-04T13:15:26.952Z,24.06
2023-05-04T13:17:53.526Z,24.07
2023-05-04T13:20:20.077Z,24.07
2023-05-04T13:22:46.635Z,24.07
2023-05-04T13:25:13.196Z,24.10
2023-05-04T13:27:39.730Z,24.10
2023-05-04T13:30:06.299Z,24.10
2023-05-04T13:32:32.875Z,24.11
2023-05-04T13:34:59.448Z,24.11
2023-05-04T13:37:25.992Z,24.10
2023-05-04T13:39:52.521Z,24.13
2023-05-04T13:42:19.328Z,24.14
2023-05-04T13:44:45.904Z,24.16
2023-05-04T13:47:12.453Z,24.18
2023-05-04T13:49:39.027Z,24.18
2023-05-04T13:52:05.591Z,24.19
2023-05-04T13:54:32.137Z,24.20
2023-05-04T13:56:58.689Z,24.21
2023-05-04T13:59:25.260Z,24.30
2023-05-04T14:01:51.824Z,24.33
2023-05-04T14:04:18.385Z,24.32
2023-05-04T14:06:44.945Z,24.29
2023-05-04T14:09:11.491Z,24.27
2023-05-04T14:11:38.045Z,24.26
2023-05-04T14:14:04.581Z,24.29
2023-05-04T14:16:31.174Z,24.30
2023-05-04T14:18:57.726Z,24.29
2023-05-04T14:21:24.304Z,24.28
2023-05-04T14:23:50.844Z,24.27
2023-05-04T14:26:17.389Z,24.28
2023-05-04T14:28:43.966Z,24.29
2023-05-04T14:31:10.513Z,24.24
2023-05-04T14:33:37.061Z,24.27
2023-05-04T14:36:03.603Z,24.28
2023-05-04T14:38:30.162Z,24.27
2023-05-04T14:40:56.710Z,24.30
2023-05-04T14:43:23.260Z,24.30
2023-05-04T14:45:49.843Z,24.30
2023-05-04T14:48:16.553Z,24.30
2023-05-04T14:50:43.179Z,24.30
2023-05-04T14:53:09.722Z,24.30
2023-05-04T14:55:36.267Z,24.32
2023-05-04T14:58:02.804Z,24.33
2023-05-04T15:00:29.337Z,24.33
2023-05-04T15:02:55.963Z,24.35
2023-05-04T15:05:22.624Z,24.36
2023-05-04T15:07:49.208Z,24.36
2023-05-04T15:10:15.753Z,24.37
2023-05-04T15:12:42.379Z,24.37
2023-05-04T15:15:08.940Z,24.35
2023-05-04T15:17:35.565Z,24.36
2023-05-04T15:20:02.123Z,24.36
2023-05-04T15:22:28.666Z,24.36
2023-05-04T15:24:55.215Z,24.34
2023-05-04T15:27:21.752Z,24.36
2023-05-04T15:29:48.285Z,24.37
2023-05-04T15:32:14.913Z,24.42
2023-05-04T15:34:45.843Z,24.41
2023-05-04T15:37:17.434Z,24.43
2023-05-04T15:39:43.992Z,24.43
2023-05-04T15:42:10.524Z,24.43
2023-05-04T15:44:37.101Z,24.44
2023-05-04T15:47:03.739Z,24.45
2023-05-04T15:49:30.344Z,24.46
2023-05-04T15:51:56.878Z,24.44
2023-05-04T15:54:23.457Z,24.45
2023-05-04T15:56:49.998Z,24.47
2023-05-04T15:59:16.532Z,24.50
2023-05-04T16:01:43.093Z,24.52
2023-05-04T16:04:09.668Z,24.55
2023-05-04T16:06:36.193Z,24.55
2023-05-04T16:09:02.729Z,24.54
2023-05-04T16:11:29.276Z,24.54
2023-05-04T16:13:55.868Z,24.54
2023-05-04T16:16:22.475Z,24.58
2023-05-04T16:18:49.078Z,24.55
2023-05-04T16:21:15.615Z,24.51
2023-05-04T16:23:42.168Z,24.53
2023-05-04T16:26:08.732Z,24.53
2023-05-04T16:28:35.293Z,24.53
2023-05-04T16:31:01.891Z,24.51
2023-05-04T16:33:28.442Z,24.52
2023-05-04T16:35:54.983Z,24.51
2023-05-04T16:38:21.749Z,24.51
2023-05-04T16:40:48.324Z,24.48
2023-05-04T16:43:14.922Z,24.54
2023-05-04T16:45:41.460Z,24.58
2023-05-04T16:48:08.058Z,24.60
2023-05-04T16:50:34.656Z,24.67
2023-05-04T16:53:01.216Z,24.68
2023-05-04T16:55:27.740Z,24.68
2023-05-04T16:57:54.280Z,24.67
2023-05-04T17:00:20.813Z,24.66
2023-05-04T17:02:47.475Z,24.65
2023-05-04T17:05:14.079Z,24.66
2023-05-04T17:07:40.613Z,24.66
2023-05-04T17:10:07.329Z,24.64
2023-05-04T17:12:34.029Z,24.61
2023-05-04T17:15:00.615Z,24.62
2023-05-04T17:17:27.171Z,24.61
2023-05-04T17:19:53.750Z,24.64
2023-05-04T17:22:20.355Z,24.64
2023-05-04T17:24:46.932Z,24.62
2023-05-04T17:27:13.491Z,24.60
2023-05-04T17:29:40.048Z,24.60
2023-05-04T17:32:06.598Z,24.60
2023-05-04T17:34:33.173Z,24.62
2023-05-04T17:36:59.732Z,24.63
2023-05-04T17:39:26.277Z,24.62
2023-05-04T17:41:52.893Z,24.63
2023-05-04T17:44:19.445Z,24.65
2023-05-04T17:46:45.975Z,24.65
2023-05-04T17:49:12.515Z,24.65
2023-05-04T17:51:39.062Z,24.67
2023-05-04T17:54:05.627Z,24.67
2023-05-04T17:56:32.166Z,24.68
2023-05-04T17:58:58.741Z,24.69
2023-05-04T18:01:25.298Z,24.69
2023-05-04T18:03:51.929Z,24.70
2023-05-04T18:06:18.492Z,24.70
2023-05-04T18:08:45.038Z,24.70
2023-05-04T18:11:11.583Z,24.69
2023-05-04T18:13:38.136Z,24.70
2023-05-04T18:16:04.737Z,24.69
2023-05-04T18:18:31.329Z,24.69
2023-05-04T18:20:57.874Z,24.67
2023-05-04T18:23:24.440Z,24.67
2023-05-04T18:25:50.991Z,24.63
2023-05-04T18:28:17.536Z,24.61
2023-05-04T18:30:44.093Z,24.59
2023-05-04T18:33:10.750Z,24.58
2023-05-04T18:35:37.299Z,24.57
2023-05-04T18:38:03.836Z,24.58
2023-05-04T18:40:30.388Z,24.57
2023-05-04T18:42:56.935Z,24.58
2023-05-04T18:45:23.468Z,24.57
2023-05-04T18:47:50.054Z,24.61
2023-05-04T18:50:16.611Z,24.62
2023-05-04T18:52:43.165Z,24.60
2023-05-04T18:55:09.696Z,24.57
2023-05-04T18:57:36.256Z,24.61
2023-05-04T19:00:02.858Z,24.60
2023-05-04T19:02:29.449Z,24.57
2023-05-04T19:04:55.998Z,24.56
2023-05-04T19:07:22.535Z,24.56
2023-05-04T19:09:49.095Z,24.55
2023-05-04T19:12:15.668Z,24.55
2023-05-04T19:14:42.212Z,24.54
2023-05-04T19:17:08.748Z,24.54
2023-05-04T19:19:35.296Z,24.54
2023-05-04T19:22:01.843Z,24.51
2023-05-04T19:24:28.430Z,24.51
2023-05-04T19:26:54.993Z,24.50
2023-05-04T19:29:21.539Z,24.51
2023-05-04T19:31:48.146Z,24.51
2023-05-04T19:34:17.473Z,24.50
2023-05-04T19:36:44.337Z,24.51
2023-05-04T19:39:10.883Z,24.55
2023-05-04T19:41:37.434Z,24.60
2023-05-04T19:44:03.980Z,24.54
2023-05-04T19:46:30.573Z,24.53
2023-05-04T19:48:57.154Z,24.52
2023-05-04T19:51:23.702Z,24.53
2023-05-04T19:53:50.242Z,24.56
2023-05-04T19:56:16.777Z,24.54
2023-05-04T19:58:43.313Z,24.55
2023-05-04T20:01:09.889Z,24.54
2023-05-04T20:03:36.433Z,24.57
2023-05-04T20:06:02.995Z,24.53
2023-05-04T20:08:29.521Z,24.54
2023-05-04T20:10:56.062Z,24.50
2023-05-04T20:13:22.604Z,24.50
2023-05-04T20:15:49.141Z,24.50
2023-05-04T20:18:15.713Z,24.54
2023-05-04T20:20:42.271Z,24.54
2023-05-04T20:23:08.815Z,24.53
2023-05-04T20:25:35.380Z,24.56
2023-05-04T20:28:01.925Z,24.57
2023-05-04T20:30:28.483Z,24.56
2023-05-04T20:32:55.133Z,24.55
2023-05-04T20:35:21.715Z,24.53
2023-05-04T20:37:48.245Z,24.51
2023-05-04T20:40:14.795Z,24.51
2023-05-04T20:42:41.409Z,24.52
2023-05-04T20:45:07.961Z,24.46
2023-05-04T20:47:34.532Z,24.48
2023-05-04T20:50:01.092Z,24.50
2023-05-04T20:52:27.633Z,24.52
2023-05-04T20:54:54.170Z,24.50
2023-05-04T20:57:20.759Z,24.49
2023-05-04T20:59:47.325Z,24.51
2023-05-04T21:02:13.855Z,24.51
2023-05-04T21:04:40.392Z,24.48
2023-05-04T21:07:06.952Z,24.47
2023-05-04T21:09:33.534Z,24.45
2023-05-04T21:12:00.305Z,24.46
2023-05-04T21:14:26.874Z,24.49
2023-05-04T21:16:53.425Z,24.46
2023-05-04T21:19:19.970Z,24.43
2023-05-04T21:21:46.521Z,24.45
2023-05-04T21:24:13.059Z,24.47
2023-05-04T21:26:39.625Z,24.51
2023-05-04T21:29:06.157Z,24.50
2023-05-04T21:31:32.775Z,24.48
2023-05-04T21:33:59.353Z,24.46
2023-05-04T21:36:25.894Z,24.48
2023-05-04T21:38:52.425Z,24.48
2023-05-04T21:41:18.955Z,24.51
2023-05-04T21:43:45.486Z,24.53
2023-05-04T21:46:12.103Z,24.52
2023-05-04T21:48:38.715Z,24.52
2023-05-04T21:51:05.251Z,24.52
2023-05-04T21:53:31.802Z,24.52
2023-05-04T21:55:58.334Z,24.50
2023-05-04T21:58:24.897Z,24.51
2023-05-04T22:00:51.466Z,24.50
2023-05-04T22:03:18.051Z,24.50
2023-05-04T22:05:44.603Z,24.50
2023-05-04T22:08:11.147Z,24.48
2023-05-04T22:10:37.683Z,24.46
2023-05-04T22:13:04.271Z,24.43
2023-05-04T22:15:42.039Z,24.43
2023-05-04T22:18:13.062Z,24.42
2023-05-04T22:20:39.614Z,24.38
2023-05-04T22:23:06.165Z,24.35
2023-05-04T22:25:32.711Z,24.33
2023-05-04T22:27:59.262Z,24.33
2023-05-04T22:30:25.814Z,24.33
2023-05-04T22:32:52.393Z,24.32
2023-05-04T22:35:18.932Z,24.32
2023-05-04T22:37:45.497Z,24.34
2023-05-04T22:40:12.039Z,24.32
2023-05-04T22:42:38.598Z,24.33
2023-05-04T22:45:05.175Z,24.33
2023-05-04T22:47:31.757Z,24.34
2023-05-04T22:49:58.316Z,24.32
2023-05-04T22:52:24.915Z,24.31
2023-05-04T22:54:51.514Z,24.32
2023-05-04T22:57:18.059Z,24.31
2023-05-04T22:59:44.617Z,24.29
2023-05-04T23:02:12.264Z,24.29
2023-05-04T23:04:40.281Z,24.28
2023-05-04T23:07:06.832Z,24.28
2023-05-04T23:09:33.363Z,24.27
2023-05-04T23:11:59.906Z,24.27
2023-05-04T23:14:26.463Z,24.26
2023-05-04T23:16:52.993Z,24.27
2023-05-04T23:19:19.557Z,24.28
2023-05-04T23:21:46.098Z,24.30
2023-05-04T23:24:12.624Z,24.28
2023-05-04T23:26:39.199Z,24.24
2023-05-04T23:29:05.762Z,24.24
2023-05-04T23:31:32.317Z,24.24
2023-05-04T23:33:58.852Z,24.24
2023-05-04T23:36:25.384Z,24.23
2023-05-04T23:38:51.916Z,24.23
2023-05-04T23:41:18.465Z,24.21
2023-05-04T23:43:45.005Z,24.23
2023-05-04T23:46:11.593Z,24.23
2023-05-04T23:48:38.180Z,24.24
2023-05-04T23:51:04.781Z,24.21
2023-05-04T23:53:31.370Z,24.21
2023-05-04T23:55:57.913Z,24.21
2023-05-04T23:58:24.467Z,24.23
